Time;durP1;ratioP1;P1;durP2;ratioP2;P2;SDS_P1;SDS_P2;PMS_P1;PMS_P2;Temp;Humidity;BMP_temperature;BMP_pressure;BME280_temperature;BME280_humidity;BME280_pressure;Samples;Min_cycle;Max_cycle;Signal;HPM_P1;HPM_P2
2023/12/01 00:00:39;;;;;;;65.13;24.60;;;2.90;99.90;;;;;;4929710;28;88520;-77
2023/12/01 00:03:28;;;;;;;;;;;;;;;;;;;;;
2023/12/01 00:06:18;;;;;;;63.25;23.38;;;2.90;99.90;;;;;;4939654;28;118275;-77
2023/12/01 00:09:02;;;;;;;61.83;23.80;;;2.90;99.90;;;;;;4948024;28;87779;-77
2023/12/01 00:11:39;;;;;;;60.30;24.60;;;2.90;99.90;;;;;;4924736;28;87997;-77
2023/12/01 00:14:23;;;;;;;63.90;25.10;;;2.90;99.90;;;;;;4928841;28;89561;-77
2023/12/01 00:16:51;;;;;;;50.95;22.85;;;2.90;99.90;;;;;;4931251;28;90476;-77
2023/12/01 00:19:22;;;;;;;53.17;22.60;;;2.90;99.90;;;;;;4930390;28;91722;-77
2023/12/01 00:21:51;;;;;;;55.58;23.60;;;2.90;99.90;;;;;;4920900;28;87602;-77
2023/12/01 00:24:26;;;;;;;60.25;24.70;;;2.80;99.90;;;;;;4939233;28;90149;-77
2023/12/01 00:26:54;;;;;;;64.47;25.85;;;2.80;99.90;;;;;;4927435;28;92223;-77
2023/12/01 00:29:26;;;;;;;60.50;23.92;;;2.80;99.90;;;;;;4927826;28;91606;-77
2023/12/01 00:32:01;;;;;;;57.10;21.88;;;2.80;99.90;;;;;;4930127;28;87794;-77
2023/12/01 00:34:41;;;;;;;57.90;22.52;;;2.80;99.90;;;;;;4913933;28;90640;-77
2023/12/01 00:37:10;;;;;;;57.95;24.05;;;2.70;99.90;;;;;;4933361;28;88774;-77
2023/12/01 00:39:43;;;;;;;57.55;23.05;;;2.70;99.90;;;;;;4935455;28;87796;-77
2023/12/01 00:42:14;;;;;;;;;;;2.70;99.90;;;;;;4920253;28;87605;-77
2023/12/01 00:44:48;;;;;;;63.00;23.92;;;2.60;99.90;;;;;;4933719;28;88796;-77
2023/12/01 00:47:19;;;;;;;59.78;23.77;;;2.70;99.90;;;;;;4905609;28;96594;-77
2023/12/01 00:49:53;;;;;;;56.67;23.60;;;2.60;99.90;;;;;;4929686;28;90906;-78
2023/12/01 00:52:22;;;;;;;58.42;23.98;;;2.60;99.90;;;;;;4939403;28;88360;-77
2023/12/01 00:54:54;;;;;;;59.03;22.80;;;2.60;99.90;;;;;;4947390;28;88006;-77
2023/12/01 00:57:27;;;;;;;58.38;23.33;;;2.50;99.90;;;;;;4929460;28;90652;-77
2023/12/01 00:59:58;;;;;;;59.95;23.70;;;2.50;99.90;;;;;;4947856;28;88384;-77
2023/12/01 01:02:31;;;;;;;55.33;21.88;;;2.40;99.90;;;;;;4947776;28;87780;-77
2023/12/01 01:05:10;;;;;;;56.70;22.48;;;2.40;99.90;;;;;;4928707;28;87755;-77
2023/12/01 01:07:39;;;;;;;57.47;23.42;;;2.30;99.90;;;;;;4930556;28;90885;-77
2023/12/01 01:13:09;;;;;;;58.25;22.70;;;2.30;99.90;;;;;;4943377;28;87482;-77
2023/12/01 01:15:58;;;;;;;57.75;22.27;;;2.30;99.90;;;;;;4930266;28;90676;-77
2023/12/01 01:18:29;;;;;;;59.85;23.17;;;2.20;99.90;;;;;;4918411;28;90328;-77
2023/12/01 01:21:01;;;;;;;55.80;22.08;;;2.20;99.90;;;;;;4942162;28;88102;-77
2023/12/01 01:23:30;;;;;;;56.35;22.08;;;2.20;99.90;;;;;;4931320;28;87762;-77
2023/12/01 01:26:02;;;;;;;56.28;22.27;;;2.20;99.90;;;;;;4948642;28;87530;-77
2023/12/01 01:28:28;;;;;;;57.60;23.13;;;2.20;99.90;;;;;;4929648;28;91942;-77
2023/12/01 01:31:02;;;;;;;57.25;22.63;;;2.20;99.90;;;;;;4910136;28;90206;-77
2023/12/01 01:33:46;;;;;;;57.83;23.90;;;2.10;99.90;;;;;;4928993;28;91646;-77
2023/12/01 01:36:11;;;;;;;;;;;2.10;99.90;;;;;;4942129;28;90724;-77
2023/12/01 01:38:40;;;;;;;61.22;22.65;;;2.20;99.90;;;;;;4932168;28;91625;-77
2023/12/01 01:41:14;;;;;;;59.70;22.17;;;2.10;99.90;;;;;;4922162;28;89922;-77
2023/12/01 01:43:39;;;;;;;62.65;22.42;;;2.10;99.90;;;;;;4920722;28;88003;-77
2023/12/01 01:46:07;;;;;;;60.08;22.52;;;2.10;99.90;;;;;;4947606;28;87661;-77
2023/12/01 01:48:36;;;;;;;64.90;24.48;;;2.10;99.90;;;;;;4928550;28;91634;-77
2023/12/01 01:51:09;;;;;;;59.45;22.33;;;2.00;99.90;;;;;;4942541;28;90117;-77
2023/12/01 01:53:41;;;;;;;;;;;2.00;99.90;;;;;;4927999;28;87805;-77
2023/12/01 01:56:12;;;;;;;56.28;23.02;;;2.10;99.90;;;;;;4927554;28;90063;-77
2023/12/01 01:58:41;;;;;;;64.63;24.15;;;2.00;99.90;;;;;;4917664;28;91716;-77
2023/12/01 02:01:12;;;;;;;61.25;22.52;;;2.00;99.90;;;;;;4926781;28;90755;-77
2023/12/01 02:03:42;;;;;;;70.60;22.95;;;2.00;99.90;;;;;;4926777;28;87234;-77
2023/12/01 02:06:12;;;;;;;63.33;22.92;;;1.90;99.90;;;;;;4930193;28;90877;-77
2023/12/01 02:08:39;;;;;;;58.13;22.83;;;2.00;99.90;;;;;;4931044;28;93943;-77
2023/12/01 02:11:05;;;;;;;62.40;23.23;;;2.00;99.90;;;;;;4930647;28;92425;-77
2023/12/01 02:13:30;;;;;;;70.78;23.50;;;1.90;99.90;;;;;;4930561;28;87575;-77
2023/12/01 02:15:59;;;;;;;62.40;23.15;;;1.90;99.90;;;;;;4928916;28;91178;-77
2023/12/01 02:18:30;;;;;;;67.05;22.70;;;1.90;99.90;;;;;;4927684;28;91053;-77
2023/12/01 02:20:56;;;;;;;67.10;22.42;;;1.90;99.90;;;;;;4945956;28;91486;-77
2023/12/01 02:23:22;;;;;;;60.92;22.40;;;1.90;99.90;;;;;;4930882;28;87799;-77
2023/12/01 02:25:56;;;;;;;70.75;23.23;;;1.90;99.90;;;;;;4935196;28;87094;-77
2023/12/01 02:29:10;;;;;;;64.03;21.73;;;1.80;99.90;;;;;;4963615;27;86568;-76
2023/12/01 02:31:36;;;;;;;59.83;21.75;;;1.80;99.90;;;;;;4958141;28;87241;-78
2023/12/01 02:34:03;;;;;;;63.78;22.60;;;1.80;99.90;;;;;;4953692;28;93258;-78
2023/12/01 02:36:28;;;;;;;57.67;22.70;;;1.80;99.90;;;;;;4992050;28;90377;-76
2023/12/01 02:38:54;;;;;;;56.67;22.95;;;1.80;99.90;;;;;;4978889;28;87850;-76
2023/12/01 02:41:20;;;;;;;63.38;22.38;;;1.80;99.90;;;;;;4980178;28;86711;-76
2023/12/01 02:43:46;;;;;;;63.28;21.17;;;1.80;99.90;;;;;;4977379;28;86146;-77
2023/12/01 02:46:12;;;;;;;60.30;21.10;;;1.80;99.90;;;;;;4961036;28;90730;-76
2023/12/01 02:48:39;;;;;;;58.90;21.60;;;1.80;99.90;;;;;;4958205;28;89129;-77
2023/12/01 02:51:05;;;;;;;54.05;20.52;;;1.80;99.90;;;;;;4947590;28;87113;-76
2023/12/01 02:53:31;;;;;;;49.70;20.17;;;1.80;99.90;;;;;;4956968;28;88152;-76
2023/12/01 02:55:57;;;;;;;59.65;21.00;;;1.80;99.90;;;;;;4965514;28;88682;-77
2023/12/01 02:58:24;;;;;;;61.10;21.55;;;1.80;99.90;;;;;;4978949;28;86463;-75
2023/12/01 03:00:50;;;;;;;60.97;21.42;;;1.80;99.90;;;;;;4978115;28;87055;-76
2023/12/01 03:03:15;;;;;;;67.57;22.45;;;1.80;99.90;;;;;;4966973;28;86596;-77
2023/12/01 03:05:41;;;;;;;61.22;21.67;;;1.80;99.90;;;;;;4977494;28;90672;-76
2023/12/01 03:08:07;;;;;;;64.88;21.67;;;1.80;99.90;;;;;;4976199;28;89164;-77
2023/12/01 03:10:34;;;;;;;59.03;21.30;;;1.80;99.90;;;;;;4969066;28;87096;-75
2023/12/01 03:13:00;;;;;;;63.88;21.40;;;1.80;99.90;;;;;;4976059;28;87723;-77
2023/12/01 03:15:25;;;;;;;57.22;21.75;;;1.80;99.90;;;;;;4978806;28;88415;-76
2023/12/01 03:17:51;;;;;;;64.18;21.45;;;1.80;99.90;;;;;;4977049;28;88736;-75
2023/12/01 03:20:17;;;;;;;61.63;21.98;;;1.80;99.90;;;;;;4979769;28;85818;-75
2023/12/01 03:22:50;;;;;;;60.28;21.73;;;1.80;99.90;;;;;;4968337;28;87119;-75
2023/12/01 03:25:17;;;;;;;57.63;19.73;;;1.80;99.90;;;;;;4976343;28;90004;-75
2023/12/01 03:27:44;;;;;;;66.03;22.35;;;1.80;99.90;;;;;;4978619;28;87041;-77
2023/12/01 03:30:15;;;;;;;60.38;20.88;;;1.90;99.90;;;;;;4977290;28;87263;-75
2023/12/01 03:32:45;;;;;;;59.88;22.00;;;1.90;99.90;;;;;;4978553;28;86513;-75
2023/12/01 03:35:15;;;;;;;61.00;21.48;;;1.90;99.90;;;;;;4977043;28;90532;-76
2023/12/01 03:37:42;;;;;;;59.58;21.70;;;1.90;99.90;;;;;;4966523;28;89885;-75
2023/12/01 03:40:12;;;;;;;62.80;22.35;;;1.90;99.90;;;;;;4958393;28;87141;-75
2023/12/01 03:42:44;;;;;;;59.17;22.85;;;1.90;99.90;;;;;;4953074;28;87204;-76
2023/12/01 03:45:12;;;;;;;57.95;21.20;;;1.90;99.90;;;;;;4957951;28;88988;-76
2023/12/01 03:47:38;;;;;;;54.45;20.60;;;1.90;99.90;;;;;;4957200;28;90372;-76
2023/12/01 03:50:04;;;;;;;60.42;20.80;;;1.90;99.90;;;;;;4965020;28;86546;-75
2023/12/01 03:52:30;;;;;;;59.75;20.77;;;1.90;99.90;;;;;;4963558;28;86471;-78
2023/12/01 03:54:58;;;;;;;57.33;22.40;;;1.90;99.90;;;;;;4953961;28;90908;-76
2023/12/01 03:57:28;;;;;;;59.50;21.17;;;2.00;99.90;;;;;;4964491;28;86640;-77
2023/12/01 03:59:54;;;;;;;65.22;22.08;;;2.00;99.90;;;;;;4957155;28;87620;-76
2023/12/01 04:02:21;;;;;;;58.42;21.05;;;2.00;99.90;;;;;;4955543;28;86695;-77
2023/12/01 04:05:07;;;;;;;62.67;21.65;;;2.00;99.90;;;;;;4953119;28;88241;-76
2023/12/01 04:07:38;;;;;;;58.00;21.50;;;2.00;99.90;;;;;;4978560;28;88854;-77
2023/12/01 04:10:10;;;;;;;63.90;21.08;;;2.00;99.90;;;;;;4951295;28;87182;-76
2023/12/01 04:12:39;;;;;;;59.83;20.65;;;2.00;99.90;;;;;;4964285;28;86302;-76
2023/12/01 04:15:05;;;;;;;64.38;20.98;;;2.00;99.90;;;;;;4964415;28;87530;-76
2023/12/01 04:17:32;;;;;;;67.82;22.02;;;2.00;99.90;;;;;;4965933;28;88493;-76
2023/12/01 04:19:58;;;;;;;62.30;23.40;;;2.00;99.90;;;;;;4952956;28;86615;-76
2023/12/01 04:22:23;;;;;;;63.38;22.23;;;2.00;99.90;;;;;;4954692;28;86852;-76
2023/12/01 04:24:49;;;;;;;64.60;22.90;;;2.00;99.90;;;;;;4951696;28;90573;-76
2023/12/01 04:27:15;;;;;;;66.57;23.15;;;2.00;99.90;;;;;;4964197;28;86373;-76
2023/12/01 04:29:41;;;;;;;74.35;24.13;;;2.00;99.90;;;;;;4953110;28;87810;-76
2023/12/01 04:32:06;;;;;;;60.28;21.45;;;2.00;99.90;;;;;;4956370;28;86670;-76
2023/12/01 04:34:32;;;;;;;64.30;23.67;;;1.90;99.90;;;;;;4954137;28;89305;-77
2023/12/01 04:37:00;;;;;;;65.55;22.77;;;1.90;99.90;;;;;;4962727;28;89942;-77
2023/12/01 04:39:26;;;;;;;65.30;23.90;;;1.90;99.90;;;;;;4952649;28;86986;-77
2023/12/01 04:41:52;;;;;;;64.28;21.98;;;1.90;99.90;;;;;;4962105;28;86555;-76
2023/12/01 04:44:17;;;;;;;60.28;22.15;;;1.90;99.90;;;;;;4952967;28;90759;-76
2023/12/01 04:46:43;;;;;;;59.95;21.27;;;1.90;99.90;;;;;;4964780;28;86354;-76
2023/12/01 04:49:09;;;;;;;66.13;22.15;;;1.80;99.90;;;;;;4964930;28;86982;-76
2023/12/01 04:51:36;;;;;;;63.47;20.30;;;1.90;99.90;;;;;;4952737;28;86739;-76
2023/12/01 04:54:07;;;;;;;64.13;21.05;;;1.80;99.90;;;;;;4962115;28;88885;-75
2023/12/01 04:56:33;;;;;;;67.00;20.88;;;1.80;99.90;;;;;;4962565;28;88240;-75
2023/12/01 04:59:01;;;;;;;56.95;19.85;;;1.80;99.90;;;;;;4951319;28;87853;-77
2023/12/01 05:01:27;;;;;;;57.80;19.25;;;1.80;99.90;;;;;;4951421;28;87284;-76
2023/12/01 05:03:53;;;;;;;54.67;20.08;;;1.80;99.90;;;;;;4953778;28;89192;-76
2023/12/01 05:06:19;;;;;;;62.65;20.42;;;1.70;99.90;;;;;;4951064;28;88388;-76
2023/12/01 05:08:45;;;;;;;63.17;19.25;;;1.70;99.90;;;;;;4955615;28;88820;-76
2023/12/01 05:11:11;;;;;;;62.58;21.88;;;1.70;99.90;;;;;;4963535;28;86487;-76
2023/12/01 05:13:36;;;;;;;58.17;20.65;;;1.70;99.90;;;;;;4963438;28;86996;-75
2023/12/01 05:16:04;;;;;;;56.47;19.55;;;1.70;99.90;;;;;;4963867;28;86667;-75
2023/12/01 05:18:30;;;;;;;59.20;20.30;;;1.70;99.90;;;;;;4954108;28;87167;-75
2023/12/01 05:20:56;;;;;;;59.35;18.90;;;1.60;99.90;;;;;;4948532;28;86894;-75
2023/12/01 05:23:21;;;;;;;56.78;18.65;;;1.60;99.90;;;;;;4964526;28;87414;-75
2023/12/01 05:25:50;;;;;;;56.80;19.08;;;1.60;99.90;;;;;;4963228;28;86810;-76
2023/12/01 05:28:16;;;;;;;56.85;19.35;;;1.60;99.90;;;;;;4961593;28;87100;-76
2023/12/01 05:30:43;;;;;;;65.18;19.63;;;1.50;99.90;;;;;;4952913;28;86565;-75
2023/12/01 05:33:09;;;;;;;60.50;19.05;;;1.60;99.90;;;;;;4954609;28;90415;-77
2023/12/01 05:35:36;;;;;;;60.55;19.05;;;1.50;99.90;;;;;;4964853;28;86718;-75
2023/12/01 05:38:04;;;;;;;61.33;20.48;;;1.50;99.90;;;;;;4962071;28;87312;-75
2023/12/01 05:40:56;;;;;;;65.80;20.70;;;1.50;99.90;;;;;;4955771;28;87202;-76
2023/12/01 05:43:21;;;;;;;62.45;19.88;;;1.50;99.90;;;;;;4957660;28;90934;-76
2023/12/01 05:45:47;;;;;;;63.30;19.35;;;1.50;99.90;;;;;;4960991;28;89227;-76
2023/12/01 05:48:13;;;;;;;63.67;19.02;;;1.50;99.90;;;;;;4953047;28;86499;-77
2023/12/01 05:50:42;;;;;;;69.60;22.90;;;1.50;99.90;;;;;;4964123;28;86460;-76
2023/12/01 05:53:10;;;;;;;67.80;21.73;;;1.50;99.90;;;;;;4953778;28;89811;-75
2023/12/01 05:55:37;;;;;;;69.18;22.25;;;1.50;99.90;;;;;;4947801;28;89006;-76
2023/12/01 05:58:26;;;;;;;66.72;22.38;;;1.50;99.90;;;;;;4955072;28;86594;-76
2023/12/01 06:00:52;;;;;;;74.22;21.83;;;1.50;99.90;;;;;;4953475;28;86235;-76
2023/12/01 06:03:19;;;;;;;74.68;21.98;;;1.50;99.90;;;;;;4960154;28;89643;-77
2023/12/01 06:05:46;;;;;;;70.88;22.98;;;1.60;99.90;;;;;;4961624;28;91135;-76
2023/12/01 06:08:12;;;;;;;69.72;21.85;;;1.50;99.90;;;;;;4960748;28;87255;-76
2023/12/01 06:10:38;;;;;;;74.43;21.92;;;1.60;99.90;;;;;;4950422;28;86654;-76
2023/12/01 06:13:04;;;;;;;88.65;26.42;;;1.60;99.90;;;;;;4952319;28;88310;-77
2023/12/01 06:15:30;;;;;;;86.05;24.70;;;1.60;99.90;;;;;;4950942;28;89757;-75
2023/12/01 06:17:58;;;;;;;78.65;23.38;;;1.60;99.90;;;;;;4951140;28;86439;-76
2023/12/01 06:20:24;;;;;;;71.97;23.15;;;1.60;99.90;;;;;;4963084;28;86307;-76
2023/12/01 06:22:57;;;;;;;81.53;24.40;;;1.60;99.90;;;;;;4952257;28;90509;-77
2023/12/01 06:25:27;;;;;;;;;;;1.50;99.90;;;;;;4962540;28;90035;-75
2023/12/01 06:28:04;;;;;;;71.95;21.38;;;1.60;99.90;;;;;;4956522;28;86612;-75
2023/12/01 06:30:34;;;;;;;71.05;22.33;;;1.60;99.90;;;;;;4950053;28;86631;-76
2023/12/01 06:33:01;;;;;;;79.45;23.10;;;1.60;99.90;;;;;;4960991;28;90250;-75
2023/12/01 06:35:27;;;;;;;68.93;21.60;;;1.60;99.90;;;;;;4963137;28;86922;-75
2023/12/01 06:37:53;;;;;;;74.25;21.95;;;1.50;99.90;;;;;;4953537;28;87754;-74
2023/12/01 06:40:20;;;;;;;66.05;21.75;;;1.60;99.90;;;;;;4951011;28;87717;-77
2023/12/01 06:42:47;;;;;;;69.53;22.17;;;1.50;99.90;;;;;;4952131;28;90221;-76
2023/12/01 06:45:14;;;;;;;71.28;24.10;;;1.50;99.90;;;;;;4963425;28;86527;-77
2023/12/01 06:47:41;;;;;;;61.97;20.63;;;1.60;99.90;;;;;;4964048;28;86233;-76
2023/12/01 06:50:11;;;;;;;73.97;22.50;;;1.60;99.90;;;;;;4954089;28;86847;-76
2023/12/01 06:52:40;;;;;;;66.38;21.55;;;1.50;99.90;;;;;;4951813;28;90585;-76
2023/12/01 06:55:07;;;;;;;68.10;21.73;;;1.60;99.90;;;;;;4951942;28;90065;-76
2023/12/01 06:57:41;;;;;;;61.53;21.10;;;1.60;99.90;;;;;;4955717;28;87324;-76
2023/12/01 07:00:09;;;;;;;59.13;21.83;;;1.60;99.90;;;;;;4961213;28;86513;-75
2023/12/01 07:02:37;;;;;;;67.07;22.38;;;1.60;99.90;;;;;;4960561;28;89380;-76
2023/12/01 07:05:19;;;;;;;71.22;23.83;;;1.60;99.90;;;;;;4959758;28;90259;-75
2023/12/01 07:07:47;;;;;;;73.22;23.27;;;1.60;99.90;;;;;;4951194;28;87455;-78
2023/12/01 07:10:16;;;;;;;69.28;24.17;;;1.50;99.90;;;;;;4951528;28;87212;-76
2023/12/01 07:12:41;;;;;;;77.00;25.98;;;1.50;99.90;;;;;;4953645;28;90442;-75
2023/12/01 07:15:11;;;;;;;82.10;27.73;;;1.50;99.90;;;;;;4955068;28;90591;-77
2023/12/01 07:17:59;;;;;;;81.45;27.83;;;1.50;99.90;;;;;;4959297;28;86517;-77
2023/12/01 07:20:24;;;;;;;86.63;27.33;;;1.50;99.90;;;;;;4965276;28;89207;-76
2023/12/01 07:22:52;;;;;;;75.32;25.65;;;1.50;99.90;;;;;;4946257;28;91519;-76
2023/12/01 07:25:22;;;;;;;81.28;28.25;;;1.50;99.90;;;;;;4986036;28;89965;-74
2023/12/01 07:27:59;;;;;;;76.03;26.73;;;1.50;99.90;;;;;;4954679;28;86218;-75
2023/12/01 07:30:29;;;;;;;76.45;25.95;;;1.50;99.90;;;;;;4956392;28;87087;-76
2023/12/01 07:33:00;;;;;;;77.50;26.80;;;1.50;99.90;;;;;;4964216;28;88764;-75
2023/12/01 07:35:26;;;;;;;79.32;26.80;;;1.50;99.90;;;;;;4963863;28;89991;-76
2023/12/01 07:37:54;;;;;;;78.43;28.23;;;1.50;99.90;;;;;;4943849;28;87383;-76
2023/12/01 07:40:38;;;;;;;79.93;27.65;;;1.50;99.90;;;;;;4945010;28;86067;-76
2023/12/01 07:43:03;;;;;;;68.82;24.45;;;1.50;99.90;;;;;;4945651;28;90401;-78
2023/12/01 07:45:29;;;;;;;79.90;25.10;;;1.50;99.90;;;;;;4954145;28;89719;-75
2023/12/01 07:47:55;;;;;;;78.45;25.92;;;1.50;99.90;;;;;;4962386;28;88329;-75
2023/12/01 07:50:21;;;;;;;70.45;24.90;;;1.50;99.90;;;;;;4955653;28;87101;-76
2023/12/01 07:52:50;;;;;;;64.00;22.08;;;1.50;99.90;;;;;;4957750;28;88857;-76
2023/12/01 07:55:16;;;;;;;60.97;21.58;;;1.50;99.90;;;;;;4954606;28;90165;-76
2023/12/01 07:57:43;;;;;;;56.15;21.08;;;1.40;99.90;;;;;;4951531;28;87113;-76
2023/12/01 08:00:14;;;;;;;55.30;18.85;;;1.40;99.90;;;;;;4955427;28;87369;-76
2023/12/01 08:02:52;;;;;;;51.67;17.80;;;1.40;99.90;;;;;;4965437;28;87640;-77
2023/12/01 08:05:19;;;;;;;57.38;20.70;;;1.40;99.90;;;;;;4934674;28;93877;-77
2023/12/01 08:07:52;;;;;;;57.75;19.95;;;1.40;99.90;;;;;;4932435;28;87533;-76
2023/12/01 08:10:21;;;;;;;57.47;20.80;;;1.40;99.90;;;;;;4944256;28;87350;-77
2023/12/01 08:12:49;;;;;;;55.67;19.02;;;1.40;99.90;;;;;;4932923;28;90385;-76
2023/12/01 08:15:15;;;;;;;54.47;19.55;;;1.40;99.90;;;;;;4939615;28;89920;-76
2023/12/01 08:17:42;;;;;;;60.60;20.85;;;1.40;99.90;;;;;;4938088;28;86565;-77
2023/12/01 08:20:10;;;;;;;56.47;20.20;;;1.50;99.90;;;;;;4936813;28;86582;-76
2023/12/01 08:22:37;;;;;;;59.78;21.25;;;1.50;99.90;;;;;;4938148;28;89535;-77
2023/12/01 08:25:04;;;;;;;54.38;19.45;;;1.50;99.90;;;;;;4949060;28;90027;-76
2023/12/01 08:27:29;;;;;;;52.33;19.63;;;1.50;99.90;;;;;;4979207;28;86671;-77
2023/12/01 08:29:55;;;;;;;54.70;20.85;;;1.50;99.90;;;;;;4955840;28;86619;-76
2023/12/01 08:32:21;;;;;;;69.22;21.60;;;1.60;99.90;;;;;;4956784;28;90563;-77
2023/12/01 08:34:46;;;;;;;54.00;20.00;;;1.60;99.90;;;;;;4956796;28;90005;-77
2023/12/01 08:37:12;;;;;;;59.97;20.98;;;1.60;99.90;;;;;;4959332;28;86328;-76
2023/12/01 08:39:38;;;;;;;53.88;20.80;;;1.60;99.90;;;;;;4958433;28;86996;-76
2023/12/01 08:42:04;;;;;;;57.15;21.33;;;1.60;99.90;;;;;;4950790;28;91000;-77
2023/12/01 08:44:30;;;;;;;60.15;21.55;;;1.70;99.90;;;;;;4955896;28;89785;-76
2023/12/01 08:46:56;;;;;;;62.05;23.40;;;1.70;99.90;;;;;;4951553;28;87622;-77
2023/12/01 08:49:22;;;;;;;61.92;23.08;;;1.70;99.90;;;;;;4956196;28;86478;-76
2023/12/01 08:51:48;;;;;;;62.15;23.42;;;1.70;99.90;;;;;;4952312;28;90804;-76
2023/12/01 08:54:13;;;;;;;57.22;23.55;;;1.80;99.90;;;;;;4954524;28;89887;-76
2023/12/01 08:56:41;;;;;;;63.90;24.52;;;1.80;99.90;;;;;;4963183;28;87725;-76
2023/12/01 08:59:07;;;;;;;60.60;23.65;;;1.80;99.90;;;;;;4961208;28;89109;-77
2023/12/01 09:01:33;;;;;;;62.00;26.05;;;1.80;99.90;;;;;;4951919;28;91101;-76
2023/12/01 09:03:59;;;;;;;64.22;23.63;;;1.80;99.90;;;;;;4962115;28;87204;-76
2023/12/01 09:06:24;;;;;;;65.25;25.70;;;1.80;99.90;;;;;;4963433;28;86844;-76
2023/12/01 09:08:50;;;;;;;60.90;25.63;;;1.80;99.90;;;;;;4961990;28;86576;-76
2023/12/01 09:11:16;;;;;;;65.38;25.48;;;1.90;99.90;;;;;;4962207;28;86815;-76
2023/12/01 09:13:42;;;;;;;68.68;24.92;;;1.80;99.90;;;;;;4955303;28;89272;-76
2023/12/01 09:16:08;;;;;;;68.22;27.00;;;1.90;99.90;;;;;;4963949;28;86643;-77
2023/12/01 09:18:34;;;;;;;67.78;25.60;;;1.90;99.90;;;;;;4962620;28;86676;-77
2023/12/01 09:20:59;;;;;;;72.60;26.13;;;1.90;99.90;;;;;;4961504;28;88145;-77
2023/12/01 09:23:25;;;;;;;73.35;26.50;;;1.90;99.90;;;;;;4962130;28;90447;-77
2023/12/01 09:25:53;;;;;;;72.90;28.35;;;2.00;99.90;;;;;;4962281;28;86846;-77
2023/12/01 09:28:18;;;;;;;75.68;26.92;;;2.00;99.90;;;;;;4963622;28;86396;-76
2023/12/01 09:31:07;;;;;;;75.97;28.30;;;2.00;99.90;;;;;;4969935;28;86727;-75
2023/12/01 09:33:34;;;;;;;71.20;27.42;;;2.00;99.90;;;;;;4968297;28;86576;-76
2023/12/01 09:36:00;;;;;;;72.25;27.98;;;2.00;99.90;;;;;;4962641;28;86949;-76
2023/12/01 09:38:25;;;;;;;75.03;27.25;;;2.00;99.90;;;;;;4952788;28;86514;-77
2023/12/01 09:40:51;;;;;;;72.97;28.73;;;2.00;99.90;;;;;;4954402;28;90369;-76
2023/12/01 09:43:18;;;;;;;69.32;27.20;;;2.00;99.90;;;;;;4960937;28;89652;-77
2023/12/01 09:45:44;;;;;;;74.72;27.50;;;2.00;99.90;;;;;;4962414;28;86943;-77
2023/12/01 09:48:11;;;;;;;67.70;28.10;;;2.00;99.90;;;;;;4963652;28;86196;-78
2023/12/01 09:50:37;;;;;;;70.35;27.13;;;2.00;99.90;;;;;;4964881;28;87799;-77
2023/12/01 09:53:03;;;;;;;72.07;27.95;;;2.00;99.90;;;;;;4957570;28;86618;-81
2023/12/01 09:55:29;;;;;;;69.63;27.45;;;2.00;99.90;;;;;;4945654;28;86866;-77
2023/12/01 09:57:56;;;;;;;72.05;27.73;;;2.10;99.90;;;;;;4953053;28;86543;-77
2023/12/01 10:00:22;;;;;;;74.03;27.63;;;2.10;99.90;;;;;;4951467;28;91328;-80
2023/12/01 10:02:48;;;;;;;80.60;27.77;;;2.10;99.90;;;;;;4965053;28;87657;-78
2023/12/01 10:05:18;;;;;;;69.78;27.52;;;2.10;99.90;;;;;;4964715;28;86476;-76
2023/12/01 10:07:44;;;;;;;75.55;26.70;;;2.20;99.90;;;;;;4955125;28;86754;-77
2023/12/01 10:10:23;;;;;;;70.63;26.70;;;2.10;99.90;;;;;;4957012;28;90814;-78
2023/12/01 10:13:04;;;;;;;71.90;27.80;;;2.20;99.90;;;;;;4951702;28;88678;-75
2023/12/01 10:15:37;;;;;;;76.40;29.25;;;2.20;99.90;;;;;;4963639;28;87418;-77
2023/12/01 10:18:23;;;;;;;66.15;26.35;;;2.20;99.90;;;;;;4971807;28;85812;-76
2023/12/01 10:21:02;;;;;;;69.68;27.83;;;2.20;99.90;;;;;;4964725;28;88969;-76
2023/12/01 10:23:29;;;;;;;68.93;26.52;;;2.30;99.90;;;;;;4965018;28;87119;-77
2023/12/01 10:25:56;;;;;;;70.82;27.75;;;2.30;99.90;;;;;;4966680;28;85832;-77
2023/12/01 10:28:36;;;;;;;70.25;26.52;;;2.30;99.90;;;;;;4964386;28;86328;-77
2023/12/01 10:31:03;;;;;;;80.15;28.67;;;2.30;99.90;;;;;;4965462;28;87768;-76
2023/12/01 10:33:29;;;;;;;75.40;27.67;;;2.30;99.90;;;;;;4953811;28;88063;-77
2023/12/01 10:36:03;;;;;;;68.05;27.95;;;2.30;99.90;;;;;;4960682;28;87035;-77
2023/12/01 10:38:30;;;;;;;74.47;27.35;;;2.30;99.90;;;;;;4956949;28;87163;-76
2023/12/01 10:40:57;;;;;;;63.42;26.58;;;2.30;99.90;;;;;;4950275;28;90770;-78
2023/12/01 10:43:23;;;;;;;69.07;27.17;;;2.40;99.90;;;;;;4952275;28;89621;-77
2023/12/01 10:45:49;;;;;;;78.25;28.95;;;2.40;99.90;;;;;;4979227;28;87355;-77
2023/12/01 10:48:19;;;;;;;70.25;27.52;;;2.40;99.90;;;;;;4945896;28;87228;-77
2023/12/01 10:50:50;;;;;;;68.43;26.08;;;2.40;99.90;;;;;;4940854;28;90884;-78
2023/12/01 10:53:16;;;;;;;68.82;27.50;;;2.50;99.90;;;;;;4952098;28;90871;-77
2023/12/01 10:55:49;;;;;;;71.38;27.20;;;2.50;99.90;;;;;;4957936;28;87319;-77
2023/12/01 10:58:25;;;;;;;72.85;28.75;;;2.50;99.90;;;;;;4958679;28;87318;-77
2023/12/01 11:00:57;;;;;;;71.07;28.92;;;2.50;99.90;;;;;;4949974;28;89484;-78
2023/12/01 11:03:29;;;;;;;67.05;25.58;;;2.60;99.90;;;;;;4950622;28;86633;-77
2023/12/01 11:06:01;;;;;;;59.92;22.92;;;2.60;99.90;;;;;;4942202;28;87367;-77
2023/12/01 11:08:49;;;;;;;58.40;24.50;;;2.70;99.90;;;;;;4950175;28;87544;-78
2023/12/01 11:11:39;;;;;;;59.15;23.70;;;2.70;99.90;;;;;;4968674;28;94183;-76
2023/12/01 11:14:07;;;;;;;62.25;24.63;;;2.90;99.90;;;;;;4969265;28;90103;-78
2023/12/01 11:16:33;;;;;;;58.88;22.92;;;2.90;99.90;;;;;;4968797;28;86874;-76
2023/12/01 11:18:59;;;;;;;58.25;22.45;;;3.00;99.90;;;;;;4962950;28;86619;-77
2023/12/01 11:21:25;;;;;;;49.53;20.40;;;3.00;99.90;;;;;;4969358;28;90524;-77
2023/12/01 11:23:51;;;;;;;47.70;19.42;;;3.10;99.90;;;;;;4961896;28;89515;-77
2023/12/01 11:26:17;;;;;;;43.20;19.52;;;3.00;99.90;;;;;;4971501;28;86510;-78
2023/12/01 11:28:45;;;;;;;47.90;19.80;;;3.10;99.90;;;;;;4965364;28;87036;-78
2023/12/01 11:31:28;;;;;;;41.38;18.15;;;3.10;99.90;;;;;;4957814;28;89975;-77
2023/12/01 11:33:56;;;;;;;51.20;21.20;;;3.10;99.90;;;;;;4964114;28;86980;-78
2023/12/01 11:36:29;;;;;;;45.97;19.75;;;3.10;99.90;;;;;;4955882;28;87736;-77
2023/12/01 11:41:41;;;;;;;;;;;3.10;99.90;;;;;;4968815;28;86483;-78
2023/12/01 11:44:18;;;;;;;42.63;19.05;;;3.10;99.90;;;;;;4968109;28;89942;-77
2023/12/01 11:46:45;;;;;;;43.55;18.13;;;3.10;99.90;;;;;;4974070;28;87758;-77
2023/12/01 11:49:11;;;;;;;38.03;16.90;;;3.10;99.90;;;;;;4973067;28;86626;-78
2023/12/01 11:51:37;;;;;;;41.67;17.45;;;3.10;99.90;;;;;;4970504;28;90627;-80
2023/12/01 11:54:03;;;;;;;36.65;16.58;;;3.10;99.90;;;;;;4980830;28;85782;-78
2023/12/01 11:56:33;;;;;;;41.10;16.55;;;3.10;99.90;;;;;;4970092;28;87168;-79
2023/12/01 11:58:59;;;;;;;36.78;16.67;;;3.10;99.90;;;;;;4976511;28;86160;-77
2023/12/01 12:01:24;;;;;;;35.22;15.35;;;3.20;99.90;;;;;;4965164;28;89761;-77
2023/12/01 12:04:00;;;;;;;33.55;15.23;;;3.20;99.90;;;;;;4971236;28;90323;-79
2023/12/01 12:06:26;;;;;;;36.75;15.32;;;3.20;99.90;;;;;;4972675;28;86320;-77
2023/12/01 12:08:52;;;;;;;33.30;15.65;;;3.30;99.90;;;;;;4974005;28;87592;-77
2023/12/01 12:11:18;;;;;;;33.53;14.88;;;3.30;99.90;;;;;;4966270;28;90055;-78
2023/12/01 12:13:53;;;;;;;35.03;14.75;;;3.30;99.90;;;;;;4966398;28;89665;-77
2023/12/01 12:16:20;;;;;;;34.15;14.27;;;3.40;99.90;;;;;;4974483;28;86109;-78
2023/12/01 12:18:48;;;;;;;37.95;17.00;;;3.40;99.90;;;;;;4962960;28;87399;-78
2023/12/01 12:21:14;;;;;;;32.83;15.32;;;3.50;99.90;;;;;;4964712;28;88714;-77
2023/12/01 12:23:41;;;;;;;35.35;14.88;;;3.50;99.90;;;;;;4975481;28;86781;-77
2023/12/01 12:26:21;;;;;;;43.88;19.40;;;3.60;99.90;;;;;;4973372;28;86347;-80
2023/12/01 12:29:07;;;;;;;49.65;22.15;;;3.50;99.90;;;;;;4959981;28;86516;-79
2023/12/01 12:31:37;;;;;;;52.58;22.30;;;3.60;99.90;;;;;;4970007;28;90904;-78
2023/12/01 12:34:08;;;;;;;53.22;23.25;;;3.50;99.90;;;;;;4971882;28;89520;-77
2023/12/01 12:36:36;;;;;;;54.63;22.23;;;3.50;99.90;;;;;;4962611;28;87553;-80
2023/12/01 12:39:07;;;;;;;55.13;24.33;;;3.50;99.90;;;;;;4963600;28;86902;-78
2023/12/01 12:41:37;;;;;;;56.15;24.55;;;3.50;99.90;;;;;;4964618;28;89310;-77
2023/12/01 12:46:35;;;;;;;62.38;25.45;;;3.60;99.90;;;;;;4937270;28;86523;-75
2023/12/01 12:49:07;;;;;;;55.75;24.23;;;3.60;99.90;;;;;;4942217;28;86509;-70
2023/12/01 12:52:27;;;;;;;;;;;;;;;;;;;;;
2023/12/01 13:05:30;;;;;;;;;;;;;;;;;;;;;
2023/12/01 13:08:02;;;;;;;49.55;20.45;;;3.50;99.90;;;;;;4910285;28;115450;-77
2023/12/01 13:10:44;;;;;;;47.65;19.08;;;3.50;99.90;;;;;;4933662;28;87165;-79